createdAt,value
2017-06-21T00:00:25.151Z,0
2017-06-21T00:01:25.188Z,0
2017-06-21T00:02:24.908Z,0
2017-06-21T00:03:25.813Z,0
2017-06-21T00:04:25.290Z,0
2017-06-21T00:05:25.622Z,0
2017-06-21T00:06:25.657Z,0
2017-06-21T00:07:25.690Z,0
2017-06-21T00:08:25.658Z,0
2017-06-21T00:09:25.746Z,0
2017-06-21T00:10:25.781Z,0
2017-06-21T00:11:25.500Z,0
2017-06-21T00:12:25.534Z,0
2017-06-21T00:13:26.121Z,0
2017-06-21T00:14:25.904Z,0
2017-06-21T00:15:25.307Z,0
2017-06-21T00:16:25.650Z,0
2017-06-21T00:17:26.001Z,0
2017-06-21T00:18:25.960Z,0
2017-06-21T00:19:26.051Z,0
2017-06-21T00:20:26.083Z,0
2017-06-21T00:21:26.124Z,0
2017-06-21T00:22:25.536Z,0
2017-06-21T00:23:26.431Z,0
2017-06-21T00:24:25.898Z,0
2017-06-21T00:25:26.237Z,0
2017-06-21T00:26:25.963Z,0
2017-06-21T00:27:25.681Z,0
2017-06-21T00:28:25.943Z,0
2017-06-21T00:29:26.049Z,0
2017-06-21T00:30:26.084Z,0
2017-06-21T00:31:25.801Z,0
2017-06-21T00:32:26.466Z,0
2017-06-21T00:33:26.770Z,0
2017-06-21T00:34:26.527Z,0
2017-06-21T00:35:26.552Z,0
2017-06-21T00:36:26.585Z,0
2017-06-21T00:37:26.618Z,0
2017-06-21T00:38:26.894Z,0
2017-06-21T00:39:26.672Z,0
2017-06-21T00:40:26.703Z,0
2017-06-21T00:41:26.734Z,0
2017-06-21T00:42:26.459Z,0
2017-06-21T00:43:26.734Z,0
2017-06-21T00:44:26.519Z,0
2017-06-21T00:45:26.545Z,0
2017-06-21T00:46:26.877Z,0
2017-06-21T00:47:26.922Z,0
2017-06-21T00:48:27.195Z,0
2017-06-21T00:49:26.985Z,0
2017-06-21T00:50:27.013Z,0
2017-06-21T00:51:27.042Z,0
2017-06-21T00:52:27.074Z,0
2017-06-21T00:53:27.034Z,0
2017-06-21T00:54:27.175Z,0
2017-06-21T00:55:27.173Z,0
2017-06-21T00:56:26.881Z,0
2017-06-21T00:57:26.922Z,0
2017-06-21T00:58:26.879Z,0
2017-06-21T00:59:26.980Z,0
2017-06-21T01:00:27.004Z,0
2017-06-21T01:01:27.363Z,0
2017-06-21T01:02:27.378Z,0
2017-06-21T01:03:27.350Z,0
2017-06-21T01:04:27.136Z,0
2017-06-21T01:05:27.161Z,0
2017-06-21T01:06:27.198Z,0
2017-06-21T01:07:27.526Z,0
2017-06-21T01:08:27.499Z,0
2017-06-21T01:09:26.970Z,0
2017-06-21T01:10:27.317Z,0
2017-06-21T01:11:27.343Z,0
2017-06-21T01:12:27.676Z,0
2017-06-21T01:13:28.053Z,0
2017-06-21T01:14:27.438Z,0
2017-06-21T01:15:27.468Z,0
2017-06-21T01:16:27.810Z,0
2017-06-21T01:17:27.526Z,0
2017-06-21T01:18:28.124Z,0
2017-06-21T01:19:27.593Z,0
2017-06-21T01:20:27.304Z,0
2017-06-21T01:21:27.974Z,0
2017-06-21T01:22:28.047Z,0
2017-06-21T01:23:27.967Z,0
2017-06-21T01:24:28.060Z,0
2017-06-21T01:25:28.088Z,0
2017-06-21T01:26:27.847Z,0
2017-06-21T01:27:28.156Z,0
2017-06-21T01:28:27.812Z,0
2017-06-21T01:29:28.212Z,0
2017-06-21T01:30:27.621Z,0
2017-06-21T01:31:28.283Z,0
2017-06-21T01:32:28.304Z,0
2017-06-21T01:33:28.272Z,0
2017-06-21T01:34:28.056Z,0
2017-06-21T01:35:28.399Z,0
2017-06-21T01:36:28.107Z,0
2017-06-21T01:37:28.460Z,0
2017-06-21T01:38:28.747Z,0
2017-06-21T01:39:28.205Z,0
2017-06-21T01:40:28.241Z,0
2017-06-21T01:41:28.591Z,0
2017-06-21T01:42:27.972Z,0
2017-06-21T01:43:28.591Z,0
2017-06-21T01:44:28.673Z,0
2017-06-21T01:45:28.391Z,0
2017-06-21T01:46:28.729Z,0
2017-06-21T01:47:28.468Z,0
2017-06-21T01:48:29.074Z,0
2017-06-21T01:49:28.518Z,0
2017-06-21T01:50:28.543Z,0
2017-06-21T01:51:28.927Z,0
2017-06-21T01:52:28.921Z,0
2017-06-21T01:53:28.649Z,0
2017-06-21T01:54:28.978Z,0
2017-06-21T01:55:29.011Z,0
2017-06-21T01:56:28.723Z,0
2017-06-21T01:57:29.068Z,0
2017-06-21T01:58:29.137Z,0
2017-06-21T01:59:29.142Z,0
2017-06-21T02:00:28.862Z,0
2017-06-21T02:01:29.192Z,0
2017-06-21T02:02:29.233Z,0
2017-06-21T02:03:28.946Z,0
2017-06-21T02:04:28.969Z,0
2017-06-21T02:05:29.015Z,0
2017-06-21T02:06:29.041Z,0
2017-06-21T02:07:29.071Z,0
2017-06-21T02:08:29.102Z,0
2017-06-21T02:09:29.442Z,0
2017-06-21T02:10:28.871Z,0
2017-06-21T02:11:29.181Z,0
2017-06-21T02:12:29.219Z,0
2017-06-21T02:13:28.938Z,0
2017-06-21T02:14:29.589Z,0
2017-06-21T02:15:29.627Z,0
2017-06-21T02:16:29.024Z,0
2017-06-21T02:17:29.681Z,0
2017-06-21T02:18:29.404Z,0
2017-06-21T02:19:29.425Z,0
2017-06-21T02:20:29.784Z,0
2017-06-21T02:21:29.863Z,0
2017-06-21T02:22:29.525Z,0
2017-06-21T02:23:29.561Z,0
2017-06-21T02:24:29.842Z,0
2017-06-21T02:25:29.619Z,0
2017-06-21T02:26:29.332Z,0
2017-06-21T02:27:29.997Z,0
2017-06-21T02:28:29.727Z,0
2017-06-21T02:29:30.303Z,0
2017-06-21T02:30:29.458Z,0
2017-06-21T02:31:29.497Z,0
2017-06-21T02:32:30.154Z,0
2017-06-21T02:33:29.866Z,0
2017-06-21T02:34:29.828Z,0
2017-06-21T02:35:29.935Z,0
2017-06-21T02:36:29.337Z,0
2017-06-21T02:37:29.986Z,0
2017-06-21T02:38:30.334Z,0
2017-06-21T02:39:30.302Z,0
2017-06-21T02:40:29.764Z,0
2017-06-21T02:41:30.110Z,0
2017-06-21T02:42:30.458Z,0
2017-06-21T02:43:30.164Z,0
2017-06-21T02:44:30.148Z,0
2017-06-21T02:45:30.552Z,0
2017-06-21T02:46:30.288Z,0
2017-06-21T02:47:29.981Z,0
2017-06-21T02:48:30.324Z,0
2017-06-21T02:49:30.612Z,0
2017-06-21T02:50:30.380Z,0
2017-06-21T02:51:30.416Z,0
2017-06-21T02:52:30.139Z,0
2017-06-21T02:53:30.795Z,0
2017-06-21T02:54:30.131Z,0
2017-06-21T02:55:30.540Z,0
2017-06-21T02:56:30.258Z,0
2017-06-21T02:57:30.914Z,0
2017-06-21T02:58:30.931Z,0
2017-06-21T02:59:30.582Z,0
2017-06-21T03:00:30.696Z,4
2017-06-21T03:01:30.713Z,4
2017-06-21T03:02:30.441Z,4
2017-06-21T03:03:31.113Z,0
2017-06-21T03:04:30.752Z,4
2017-06-21T03:05:30.528Z,4
2017-06-21T03:06:31.191Z,4
2017-06-21T03:07:30.902Z,8
2017-06-21T03:08:31.257Z,4
2017-06-21T03:09:31.524Z,8
2017-06-21T03:10:31.309Z,8
2017-06-21T03:11:31.338Z,8
2017-06-21T03:12:31.053Z,12
2017-06-21T03:13:31.113Z,8
2017-06-21T03:14:31.378Z,12
2017-06-21T03:15:31.465Z,12
2017-06-21T03:16:31.499Z,16
2017-06-21T03:17:31.527Z,16
2017-06-21T03:18:31.546Z,20
2017-06-21T03:19:31.828Z,20
2017-06-21T03:20:31.309Z,24
2017-06-21T03:21:31.334Z,24
2017-06-21T03:22:31.677Z,24
2017-06-21T03:23:31.701Z,28
2017-06-21T03:24:31.688Z,32
2017-06-21T03:25:31.762Z,32
2017-06-21T03:26:31.482Z,36
2017-06-21T03:27:31.512Z,40
2017-06-21T03:28:31.232Z,44
2017-06-21T03:29:31.513Z,44
2017-06-21T03:30:31.301Z,48
2017-06-21T03:31:31.946Z,52
2017-06-21T03:32:31.979Z,56
2017-06-21T03:33:32.012Z,60
2017-06-21T03:34:31.661Z,64
2017-06-21T03:35:32.074Z,68
2017-06-21T03:36:32.100Z,76
2017-06-21T03:37:31.812Z,76
2017-06-21T03:38:31.857Z,84
2017-06-21T03:39:32.449Z,88
2017-06-21T03:40:32.217Z,88
2017-06-21T03:41:32.253Z,96
2017-06-21T03:42:32.289Z,100
2017-06-21T03:43:31.685Z,108
2017-06-21T03:44:32.290Z,112
2017-06-21T03:45:31.749Z,120
2017-06-21T03:46:31.786Z,124
2017-06-21T03:47:32.444Z,128
2017-06-21T03:48:32.152Z,132
2017-06-21T03:49:32.738Z,140
2017-06-21T03:50:32.518Z,144
2017-06-21T03:51:31.931Z,148
2017-06-21T03:52:32.284Z,156
2017-06-21T03:53:32.621Z,164
2017-06-21T03:54:32.902Z,172
2017-06-21T03:55:32.675Z,180
2017-06-21T03:56:31.776Z,184
2017-06-21T03:57:32.736Z,192
2017-06-21T03:58:32.453Z,200
2017-06-21T03:59:33.057Z,208
2017-06-21T04:00:32.524Z,208
2017-06-21T04:01:32.552Z,208
2017-06-21T04:02:32.888Z,208
2017-06-21T04:03:32.302Z,208
2017-06-21T04:04:32.576Z,212
2017-06-21T04:05:32.979Z,216
2017-06-21T04:06:33.012Z,220
2017-06-21T04:07:32.733Z,228
2017-06-21T04:08:33.079Z,236
2017-06-21T04:09:33.355Z,244
2017-06-21T04:10:32.815Z,252
2017-06-21T04:11:32.856Z,260
2017-06-21T04:12:33.201Z,272
2017-06-21T04:13:32.909Z,284
2017-06-21T04:14:33.198Z,300
2017-06-21T04:15:33.287Z,316
2017-06-21T04:16:33.315Z,328
2017-06-21T04:17:32.716Z,344
2017-06-21T04:18:32.749Z,356
2017-06-21T04:19:33.034Z,376
2017-06-21T04:20:33.435Z,392
2017-06-21T04:21:33.488Z,404
2017-06-21T04:22:33.185Z,424
2017-06-21T04:23:32.905Z,436
2017-06-21T04:24:33.811Z,452
2017-06-21T04:25:32.971Z,468
2017-06-21T04:26:33.001Z,480
2017-06-21T04:27:33.663Z,492
2017-06-21T04:28:33.367Z,504
2017-06-21T04:29:33.651Z,512
2017-06-21T04:30:33.432Z,520
2017-06-21T04:31:33.485Z,524
2017-06-21T04:32:33.503Z,528
2017-06-21T04:33:33.822Z,532
2017-06-21T04:34:34.113Z,540
2017-06-21T04:35:33.586Z,544
2017-06-21T04:36:33.924Z,552
2017-06-21T04:37:33.649Z,556
2017-06-21T04:38:33.986Z,564
2017-06-21T04:39:33.702Z,572
2017-06-21T04:40:33.425Z,584
2017-06-21T04:41:34.077Z,592
2017-06-21T04:42:34.105Z,592
2017-06-21T04:43:34.142Z,592
2017-06-21T04:44:34.167Z,592
2017-06-21T04:45:33.884Z,592
2017-06-21T04:46:33.921Z,596
2017-06-21T04:47:33.637Z,604
2017-06-21T04:48:33.982Z,612
2017-06-21T04:49:34.013Z,620
2017-06-21T04:50:34.349Z,620
2017-06-21T04:51:34.377Z,624
2017-06-21T04:52:33.833Z,636
2017-06-21T04:53:34.442Z,656
2017-06-21T04:54:33.844Z,668
2017-06-21T04:55:33.561Z,684
2017-06-21T04:56:34.537Z,680
2017-06-21T04:57:33.933Z,672
2017-06-21T04:58:34.595Z,656
2017-06-21T04:59:34.302Z,644
2017-06-21T05:00:33.720Z,620
2017-06-21T05:01:34.381Z,596
2017-06-21T05:02:34.723Z,572
2017-06-21T05:03:34.123Z,552
2017-06-21T05:04:34.455Z,532
2017-06-21T05:05:34.802Z,520
2017-06-21T05:06:34.526Z,520
2017-06-21T05:07:34.242Z,528
2017-06-21T05:08:34.899Z,544
2017-06-21T05:09:34.605Z,568
2017-06-21T05:10:34.642Z,600
2017-06-21T05:11:34.994Z,620
2017-06-21T05:12:35.016Z,628
2017-06-21T05:13:35.043Z,628
2017-06-21T05:14:35.083Z,628
2017-06-21T05:15:34.801Z,624
2017-06-21T05:16:34.833Z,620
2017-06-21T05:17:34.847Z,612
2017-06-21T05:18:35.200Z,588
2017-06-21T05:19:34.936Z,568
2017-06-21T05:20:35.497Z,556
2017-06-21T05:21:34.972Z,544
2017-06-21T05:22:35.006Z,536
2017-06-21T05:23:35.032Z,532
2017-06-21T05:24:34.760Z,540
2017-06-21T05:25:34.728Z,548
2017-06-21T05:26:35.445Z,532
2017-06-21T05:27:35.478Z,500
2017-06-21T05:28:35.516Z,504
2017-06-21T05:29:35.230Z,508
2017-06-21T05:30:35.822Z,516
2017-06-21T05:31:34.963Z,520
2017-06-21T05:32:35.641Z,524
2017-06-21T05:33:35.347Z,520
2017-06-21T05:34:35.369Z,516
2017-06-21T05:35:35.654Z,512
2017-06-21T05:36:35.429Z,508
2017-06-21T05:37:35.787Z,512
2017-06-21T05:38:35.500Z,520
2017-06-21T05:39:35.213Z,548
2017-06-21T05:40:36.129Z,568
2017-06-21T05:41:35.603Z,576
2017-06-21T05:42:35.939Z,592
2017-06-21T05:43:35.664Z,600
2017-06-21T05:44:35.991Z,600
2017-06-21T05:45:35.968Z,596
2017-06-21T05:46:35.751Z,588
2017-06-21T05:47:35.775Z,596
2017-06-21T05:48:36.120Z,616
2017-06-21T05:49:35.521Z,620
2017-06-21T05:50:36.123Z,628
2017-06-21T05:51:35.912Z,636
2017-06-21T05:52:36.261Z,628
2017-06-21T05:53:36.269Z,652
2017-06-21T05:54:35.986Z,656
2017-06-21T05:55:36.580Z,656
2017-06-21T05:56:35.727Z,652
2017-06-21T05:57:36.074Z,648
2017-06-21T05:58:35.798Z,624
2017-06-21T05:59:36.455Z,616
2017-06-21T06:00:36.734Z,608
2017-06-21T06:01:36.196Z,580
2017-06-21T06:02:36.238Z,572
2017-06-21T06:03:36.578Z,556
2017-06-21T06:04:35.994Z,588
2017-06-21T06:05:36.574Z,612
2017-06-21T06:06:36.338Z,620
2017-06-21T06:07:36.696Z,616
2017-06-21T06:08:36.725Z,608
2017-06-21T06:09:36.442Z,612
2017-06-21T06:10:36.757Z,636
2017-06-21T06:11:36.817Z,632
2017-06-21T06:12:36.536Z,632
2017-06-21T06:13:36.557Z,628
2017-06-21T06:14:36.286Z,632
2017-06-21T06:15:37.256Z,636
2017-06-21T06:16:36.376Z,636
2017-06-21T06:17:37.005Z,640
2017-06-21T06:18:36.714Z,652
2017-06-21T06:19:36.433Z,668
2017-06-21T06:20:37.091Z,684
2017-06-21T06:21:37.124Z,684
2017-06-21T06:22:37.170Z,684
2017-06-21T06:23:37.190Z,688
2017-06-21T06:24:37.218Z,692
2017-06-21T06:25:36.927Z,700
2017-06-21T06:26:36.963Z,712
2017-06-21T06:27:36.996Z,716
2017-06-21T06:28:37.022Z,720
2017-06-21T06:29:37.054Z,728
2017-06-21T06:30:36.808Z,732
2017-06-21T06:31:37.117Z,740
2017-06-21T06:32:37.462Z,744
2017-06-21T06:33:37.494Z,752
2017-06-21T06:34:37.195Z,756
2017-06-21T06:35:37.536Z,760
2017-06-21T06:36:37.578Z,760
2017-06-21T06:37:36.977Z,764
2017-06-21T06:38:37.010Z,768
2017-06-21T06:39:37.673Z,772
2017-06-21T06:40:37.387Z,776
2017-06-21T06:41:37.679Z,776
2017-06-21T06:42:37.458Z,776
2017-06-21T06:43:37.479Z,784
2017-06-21T06:44:37.826Z,788
2017-06-21T06:45:37.871Z,788
2017-06-21T06:46:38.188Z,792
2017-06-21T06:47:37.937Z,796
2017-06-21T06:48:37.941Z,796
2017-06-21T06:49:37.978Z,800
2017-06-21T06:50:37.727Z,804
2017-06-21T06:51:37.980Z,808
2017-06-21T06:52:38.077Z,816
2017-06-21T06:53:37.779Z,816
2017-06-21T06:54:37.816Z,820
2017-06-21T06:55:38.164Z,824
2017-06-21T06:56:37.831Z,824
2017-06-21T06:57:37.933Z,828
2017-06-21T06:58:37.986Z,832
2017-06-21T06:59:38.287Z,836
2017-06-21T07:00:38.031Z,840
2017-06-21T07:01:38.593Z,844
2017-06-21T07:02:38.375Z,848
2017-06-21T07:03:38.093Z,852
2017-06-21T07:04:38.446Z,860
2017-06-21T07:05:38.152Z,860
2017-06-21T07:06:38.741Z,872
2017-06-21T07:07:38.525Z,872
2017-06-21T07:08:38.252Z,876
2017-06-21T07:09:38.284Z,880
2017-06-21T07:10:38.620Z,884
2017-06-21T07:11:38.901Z,888
2017-06-21T07:12:38.366Z,892
2017-06-21T07:13:38.403Z,896
2017-06-21T07:14:38.740Z,896
2017-06-21T07:15:38.521Z,900
2017-06-21T07:16:38.729Z,904
2017-06-21T07:17:38.527Z,904
2017-06-21T07:18:38.548Z,900
2017-06-21T07:19:38.582Z,900
2017-06-21T07:20:38.309Z,908
2017-06-21T07:21:38.590Z,908
2017-06-21T07:22:38.682Z,912
2017-06-21T07:23:39.019Z,920
2017-06-21T07:24:39.040Z,924
2017-06-21T07:25:39.086Z,932
2017-06-21T07:26:39.057Z,940
2017-06-21T07:27:39.134Z,948
2017-06-21T07:28:38.571Z,952
2017-06-21T07:29:38.900Z,956
2017-06-21T07:30:38.909Z,956
2017-06-21T07:31:39.518Z,972
2017-06-21T07:32:38.979Z,984
2017-06-21T07:33:39.012Z,1004
2017-06-21T07:34:39.363Z,1004
2017-06-21T07:35:39.085Z,1012
2017-06-21T07:36:39.041Z,1020
2017-06-21T07:37:38.519Z,1028
2017-06-21T07:38:39.162Z,1032
2017-06-21T07:39:38.893Z,1036
2017-06-21T07:40:39.233Z,1052
2017-06-21T07:41:39.505Z,1060
2017-06-21T07:42:39.283Z,1068
2017-06-21T07:43:39.622Z,1080
2017-06-21T07:44:39.368Z,1080
2017-06-21T07:45:39.686Z,1088
2017-06-21T07:46:39.982Z,1088
2017-06-21T07:47:39.760Z,1088
2017-06-21T07:48:39.791Z,1084
2017-06-21T07:49:39.818Z,1088
2017-06-21T07:50:39.850Z,1088
2017-06-21T07:51:39.817Z,1092
2017-06-21T07:52:39.587Z,1096
2017-06-21T07:53:39.320Z,1096
2017-06-21T07:54:39.666Z,1088
2017-06-21T07:55:40.006Z,1084
2017-06-21T07:56:40.282Z,1096
2017-06-21T07:57:39.755Z,1108
2017-06-21T07:58:39.781Z,1112
2017-06-21T07:59:40.132Z,1112
2017-06-21T08:00:40.158Z,1108
2017-06-21T08:01:40.123Z,1112
2017-06-21T08:02:39.899Z,1124
2017-06-21T08:03:40.246Z,1148
2017-06-21T08:04:39.968Z,1152
2017-06-21T08:05:40.307Z,1156
2017-06-21T08:06:40.614Z,1164
2017-06-21T08:07:39.760Z,1172
2017-06-21T08:08:40.400Z,1176
2017-06-21T08:09:39.985Z,1184
2017-06-21T08:10:40.472Z,1184
2017-06-21T08:11:40.746Z,1192
2017-06-21T08:12:39.903Z,1196
2017-06-21T08:13:40.246Z,1204
2017-06-21T08:14:40.260Z,1204
2017-06-21T08:15:40.614Z,1212
2017-06-21T08:16:40.891Z,1216
2017-06-21T08:17:40.676Z,1228
2017-06-21T08:18:40.390Z,1232
2017-06-21T08:19:40.425Z,1248
2017-06-21T08:20:40.986Z,1256
2017-06-21T08:21:41.051Z,1264
2017-06-21T08:22:40.828Z,1280
2017-06-21T08:23:40.549Z,1288
2017-06-21T08:24:40.576Z,1300
2017-06-21T08:25:40.922Z,1312
2017-06-21T08:26:41.198Z,1320
2017-06-21T08:27:40.988Z,1332
2017-06-21T08:28:40.716Z,1344
2017-06-21T08:29:41.047Z,1356
2017-06-21T08:30:40.771Z,1364
2017-06-21T08:31:41.110Z,1372
2017-06-21T08:32:40.822Z,1384
2017-06-21T08:33:40.553Z,1392
2017-06-21T08:34:41.205Z,1396
2017-06-21T08:35:40.631Z,1404
2017-06-21T08:36:40.945Z,1412
2017-06-21T08:37:40.982Z,1420
2017-06-21T08:38:41.313Z,1436
2017-06-21T08:39:41.041Z,1444
2017-06-21T08:40:41.066Z,1460
2017-06-21T08:41:41.416Z,1468
2017-06-21T08:42:40.817Z,1480
2017-06-21T08:43:40.863Z,1488
2017-06-21T08:44:41.197Z,1504
2017-06-21T08:45:41.538Z,1508
2017-06-21T08:46:41.576Z,1520
2017-06-21T08:47:41.289Z,1528
2017-06-21T08:48:41.621Z,1536
2017-06-21T08:49:40.731Z,1548
2017-06-21T08:50:41.697Z,1564
2017-06-21T08:51:41.095Z,1572
2017-06-21T08:52:42.017Z,1584
2017-06-21T08:53:41.157Z,1596
2017-06-21T08:54:41.502Z,1612
2017-06-21T08:55:41.839Z,1628
2017-06-21T08:56:41.256Z,1648
2017-06-21T08:57:41.541Z,1660
2017-06-21T08:58:41.341Z,1676
2017-06-21T08:59:41.663Z,1688
2017-06-21T09:00:42.008Z,1704
2017-06-21T09:01:42.032Z,1716
2017-06-21T09:02:42.312Z,1724
2017-06-21T09:03:42.092Z,1736
2017-06-21T09:04:42.126Z,1748
2017-06-21T09:05:41.532Z,1760
2017-06-21T09:06:42.188Z,1780
2017-06-21T09:07:42.462Z,1800
2017-06-21T09:08:41.934Z,1816
2017-06-21T09:09:41.966Z,1832
2017-06-21T09:10:42.315Z,1844
2017-06-21T09:11:41.733Z,1856
2017-06-21T09:12:42.622Z,1872
2017-06-21T09:13:42.089Z,1888
2017-06-21T09:14:42.131Z,1904
2017-06-21T09:15:42.154Z,1912
2017-06-21T09:16:41.872Z,1924
2017-06-21T09:17:42.781Z,1932
2017-06-21T09:18:42.242Z,1944
2017-06-21T09:19:42.592Z,1948
2017-06-21T09:20:42.612Z,1964
2017-06-21T09:21:42.644Z,1972
2017-06-21T09:22:42.977Z,1984
2017-06-21T09:23:42.706Z,1996
2017-06-21T09:24:42.743Z,2012
2017-06-21T09:25:42.468Z,2028
2017-06-21T09:26:42.807Z,2036
2017-06-21T09:27:43.080Z,2044
2017-06-21T09:28:42.857Z,2068
2017-06-21T09:29:42.584Z,2088
2017-06-21T09:30:42.613Z,2108
2017-06-21T09:31:42.953Z,2128
2017-06-21T09:32:43.237Z,2148
2017-06-21T09:33:42.718Z,2164
2017-06-21T09:34:43.051Z,2188
2017-06-21T09:35:43.084Z,2204
2017-06-21T09:36:43.118Z,2224
2017-06-21T09:37:43.399Z,2244
2017-06-21T09:38:43.183Z,2260
2017-06-21T09:39:42.896Z,2276
2017-06-21T09:40:43.236Z,2296
2017-06-21T09:41:42.646Z,2328
2017-06-21T09:42:43.237Z,2356
2017-06-21T09:43:43.325Z,2384
2017-06-21T09:44:42.735Z,2408
2017-06-21T09:45:43.400Z,2432
2017-06-21T09:46:43.425Z,2456
2017-06-21T09:47:43.707Z,2476
2017-06-21T09:48:43.170Z,2496
2017-06-21T09:49:43.196Z,2512
2017-06-21T09:50:43.540Z,2528
2017-06-21T09:51:43.577Z,2556
2017-06-21T09:52:43.548Z,2576
2017-06-21T09:53:43.634Z,2612
2017-06-21T09:54:43.359Z,2644
2017-06-21T09:55:43.696Z,2668
2017-06-21T09:56:43.436Z,2692
2017-06-21T09:57:43.684Z,2712
2017-06-21T09:58:43.499Z,2740
2017-06-21T09:59:43.511Z,2768
2017-06-21T10:00:43.538Z,2796
2017-06-21T10:01:43.260Z,2828
2017-06-21T10:02:44.170Z,2860
2017-06-21T10:03:43.635Z,2872
2017-06-21T10:04:43.668Z,2888
2017-06-21T10:05:44.009Z,2908
2017-06-21T10:06:58.671Z,2932
2017-06-21T10:07:44.530Z,2944
2017-06-21T10:08:45.610Z,2960
2017-06-21T10:10:00.660Z,2996
2017-06-21T10:10:58.845Z,3044
2017-06-21T10:11:44.716Z,3080
2017-06-21T10:12:44.914Z,3116
2017-06-21T10:14:01.944Z,3132
2017-06-21T10:14:58.595Z,3152
2017-06-21T10:16:44.094Z,3180
2017-06-21T10:18:13.883Z,3200
2017-06-21T10:19:03.559Z,3224
2017-06-21T10:19:44.738Z,3240
2017-06-21T10:20:44.960Z,3276
2017-06-21T10:22:45.432Z,3316
2017-06-21T10:23:45.927Z,3320
2017-06-21T10:24:44.601Z,3344
2017-06-21T10:25:44.634Z,3356
2017-06-21T10:26:44.350Z,3372
2017-06-21T10:27:44.687Z,3424
2017-06-21T10:28:44.972Z,3468
2017-06-21T10:29:44.756Z,3508
2017-06-21T10:30:44.785Z,3568
2017-06-21T10:31:44.822Z,3632
2017-06-21T10:32:44.224Z,3696
2017-06-21T10:33:45.133Z,3728
2017-06-21T10:34:44.908Z,3856
2017-06-21T10:35:44.634Z,4092
2017-06-21T10:36:44.675Z,4244
2017-06-21T10:37:45.001Z,4364
2017-06-21T10:38:45.195Z,4392
2017-06-21T10:39:45.526Z,4404
2017-06-21T10:40:59.361Z,4456
2017-06-21T10:41:44.823Z,4452
2017-06-21T10:42:45.167Z,4440
2017-06-21T10:43:45.669Z,4416
2017-06-21T10:44:45.238Z,4468
2017-06-21T10:45:45.245Z,4468
2017-06-21T10:46:45.503Z,4536
2017-06-21T10:47:45.043Z,4576
2017-06-21T10:49:00.205Z,4648
2017-06-21T10:49:45.526Z,4708
2017-06-21T10:50:45.655Z,4740
2017-06-21T10:51:45.668Z,4820
2017-06-21T10:52:45.692Z,4872
2017-06-21T10:53:45.780Z,4900
2017-06-21T10:54:44.901Z,4860
2017-06-21T10:55:45.251Z,4832
2017-06-21T10:56:45.317Z,4880
2017-06-21T10:57:45.306Z,4896
2017-06-21T10:58:45.912Z,4936
2017-06-21T10:59:45.696Z,5116
2017-06-21T11:00:45.409Z,5280
2017-06-21T11:01:45.421Z,5416
2017-06-21T11:02:45.146Z,5532
2017-06-21T11:03:45.127Z,5640
2017-06-21T11:04:45.846Z,5716
2017-06-21T11:05:45.555Z,5716
2017-06-21T11:06:45.595Z,5740
2017-06-21T11:07:45.622Z,5772
2017-06-21T11:08:45.907Z,5840
2017-06-21T11:09:45.377Z,5968
2017-06-21T11:10:45.721Z,6020
2017-06-21T11:11:45.751Z,6152
2017-06-21T11:12:45.780Z,6132
2017-06-21T11:13:46.060Z,6092
2017-06-21T11:14:45.846Z,6032
2017-06-21T11:15:46.187Z,6196
2017-06-21T11:16:46.226Z,6404
2017-06-21T11:17:46.254Z,6692
2017-06-21T11:18:46.217Z,6896
2017-06-21T11:19:46.009Z,7052
2017-06-21T11:20:46.333Z,7136
2017-06-21T11:21:46.058Z,7176
2017-06-21T11:22:46.399Z,7212
2017-06-21T11:23:46.378Z,7120
2017-06-21T11:24:46.466Z,7096
2017-06-21T11:25:46.494Z,7252
2017-06-21T11:26:46.539Z,7424
2017-06-21T11:27:46.244Z,7476
2017-06-21T11:28:46.845Z,7468
2017-06-21T11:29:46.621Z,7400
2017-06-21T11:30:46.657Z,7364
2017-06-21T11:31:46.371Z,7460
2017-06-21T11:32:46.403Z,7648
2017-06-21T11:33:47.064Z,7816
2017-06-21T11:34:46.175Z,8212
2017-06-21T11:35:46.502Z,9948
2017-06-21T11:36:46.543Z,14456
2017-06-21T11:37:46.564Z,17592
2017-06-21T11:38:46.845Z,18316
2017-06-21T11:39:46.633Z,18336
2017-06-21T11:40:46.975Z,17088
2017-06-21T11:41:46.692Z,19136
2017-06-21T11:42:47.063Z,19264
2017-06-21T11:43:46.693Z,19040
2017-06-21T11:44:47.098Z,20864
2017-06-21T11:45:46.502Z,21696
2017-06-21T11:46:46.544Z,21664
2017-06-21T11:47:46.889Z,22240
2017-06-21T11:48:47.475Z,20896
2017-06-21T11:49:47.267Z,22016
2017-06-21T11:50:46.975Z,24128
2017-06-21T11:51:47.328Z,25920
2017-06-21T11:52:47.368Z,26016
2017-06-21T11:53:47.673Z,27872
2017-06-21T11:54:47.110Z,29504
2017-06-21T11:55:47.464Z,31872
2017-06-21T11:56:47.491Z,36416
2017-06-21T11:57:47.520Z,33024
2017-06-21T11:58:46.873Z,28448
2017-06-21T11:59:47.581Z,26528
2017-06-21T12:00:47.622Z,26560
2017-06-21T12:01:47.665Z,25472
2017-06-21T12:02:47.691Z,28608
2017-06-21T12:03:47.977Z,31968
2017-06-21T12:04:47.445Z,40128
2017-06-21T12:05:47.799Z,42944
2017-06-21T12:06:47.823Z,47424
2017-06-21T12:07:47.534Z,48224
2017-06-21T12:08:47.824Z,51584
2017-06-21T12:09:47.603Z,51616
2017-06-21T12:10:47.633Z,48064
2017-06-21T12:11:47.984Z,44992
2017-06-21T12:12:48.028Z,39232
2017-06-21T12:13:48.000Z,34752
2017-06-21T12:14:48.098Z,37088
2017-06-21T12:15:48.123Z,38688
2017-06-21T12:16:48.165Z,37184
2017-06-21T12:17:47.571Z,35968
2017-06-21T12:18:48.482Z,32032
2017-06-21T12:19:47.947Z,28064
2017-06-21T12:20:47.979Z,33952
2017-06-21T12:21:48.339Z,38944
2017-06-21T12:22:48.360Z,41376
2017-06-21T12:23:48.652Z,44832
2017-06-21T12:24:48.426Z,44608
2017-06-21T12:25:48.152Z,43328
2017-06-21T12:26:48.504Z,40800
2017-06-21T12:27:48.526Z,39264
2017-06-21T12:28:48.506Z,34912
2017-06-21T12:29:47.980Z,33312
2017-06-21T12:30:48.332Z,29760
2017-06-21T12:31:48.359Z,40864
2017-06-21T12:32:48.713Z,50400
2017-06-21T12:33:48.981Z,59648
2017-06-21T12:34:48.155Z,55552
2017-06-21T12:35:48.495Z,33920
2017-06-21T12:36:48.540Z,36864
2017-06-21T12:37:48.254Z,40992
2017-06-21T12:38:49.170Z,43744
2017-06-21T12:39:48.639Z,52096
2017-06-21T12:40:48.677Z,56960
2017-06-21T12:41:48.713Z,56640
2017-06-21T12:42:48.741Z,57120
2017-06-21T12:43:49.029Z,53408
2017-06-21T12:44:49.131Z,45728
2017-06-21T12:45:48.544Z,53312
2017-06-21T12:46:49.197Z,56480
2017-06-21T12:47:48.922Z,10328
2017-06-21T12:48:49.207Z,52704
2017-06-21T12:49:48.359Z,11448
2017-06-21T12:50:48.713Z,38272
2017-06-21T12:51:49.373Z,58816
2017-06-21T12:52:49.101Z,58176
2017-06-21T12:53:49.319Z,54080
2017-06-21T12:54:48.863Z,52672
2017-06-21T12:55:49.519Z,55552
2017-06-21T12:56:49.549Z,58400
2017-06-21T12:57:49.585Z,59680
2017-06-21T12:58:49.559Z,60320
2017-06-21T12:59:49.352Z,58720
2017-06-21T13:00:49.368Z,61248
2017-06-21T13:01:49.417Z,58944
2017-06-21T13:02:49.450Z,57824
2017-06-21T13:03:49.733Z,33120
2017-06-21T13:04:49.827Z,54752
2017-06-21T13:05:49.561Z,56512
2017-06-21T13:06:49.597Z,54016
2017-06-21T13:07:49.622Z,56768
2017-06-21T13:08:50.237Z,59552
2017-06-21T13:09:50.000Z,58240
2017-06-21T13:10:50.044Z,57152
2017-06-21T13:11:50.075Z,57472
2017-06-21T13:12:49.498Z,19328
2017-06-21T13:13:50.097Z,51680
2017-06-21T13:14:49.862Z,52864
2017-06-21T13:15:50.237Z,52512
2017-06-21T13:16:49.957Z,50464
2017-06-21T13:17:49.982Z,8412
2017-06-21T13:18:50.571Z,7864
2017-06-21T13:19:50.058Z,7872
2017-06-21T13:20:50.389Z,30720
2017-06-21T13:21:50.437Z,15308
2017-06-21T13:22:50.469Z,9980
2017-06-21T13:23:50.200Z,7884
2017-06-21T13:24:50.537Z,7464
2017-06-21T13:25:49.952Z,8032
2017-06-21T13:26:50.305Z,8008
2017-06-21T13:27:50.644Z,7740
2017-06-21T13:28:50.679Z,7444
2017-06-21T13:29:50.402Z,6344
2017-06-21T13:30:50.748Z,5404
2017-06-21T13:31:50.474Z,4956
2017-06-21T13:32:50.506Z,4856
2017-06-21T13:33:50.540Z,4964
2017-06-21T13:34:50.876Z,4632
2017-06-21T13:35:50.610Z,4276
2017-06-21T13:36:50.955Z,4448
2017-06-21T13:37:50.671Z,4972
2017-06-21T13:38:51.020Z,6120
2017-06-21T13:39:50.745Z,9764
2017-06-21T13:40:50.778Z,47328
2017-06-21T13:41:51.122Z,42336
2017-06-21T13:42:50.839Z,5796
2017-06-21T13:43:51.192Z,5032
2017-06-21T13:44:50.905Z,4848
2017-06-21T13:45:50.634Z,4768